This is the latest recevied weather packets stored in our database for station/object KN6CRX. If no packets are shown the sender has not sent any weather packets the latest 10 day(s).
| Time | Temp. | Humidity | Pressure | Rain* | Wind** | Luminosity | Snow |
|---|---|---|---|---|---|---|---|
| 1787960597 | 27.22° C | 43% | 1017.6 hPa | 0 mm | - | 118 W/m² | - |
| 1787960295 | 27.22° C | 40% | 1017.5 hPa | 0 mm | - | 98 W/m² | - |
| 1787959990 | 27.22° C | 40% | 1017.7 hPa | 0 mm | - | 65 W/m² | - |
| 1787959685 | 27.22° C | 38% | 1017.4 hPa | 0 mm | - | 57 W/m² | - |
| 1787959381 | 27.22° C | 38% | 1017.5 hPa | 0 mm | - | 69 W/m² | - |
| 1787959075 | 27.22° C | 38% | 1017.5 hPa | 0 mm | - | 83 W/m² | - |
| 1787958770 | 27.78° C | 38% | 1017.6 hPa | 0 mm | - | 76 W/m² | - |
| 1787958466 | 27.78° C | 37% | 1017.5 hPa | 0 mm | - | 77 W/m² | - |
| 1787958161 | 27.78° C | 38% | 1017.6 hPa | 0 mm | - | 100 W/m² | - |
| 1787957861 | 27.78° C | 38% | 1017.6 hPa | 0 mm | - | 120 W/m² | - |
| 1787957554 | 28.33° C | 37% | 1017.7 hPa | 0 mm | - | 116 W/m² | - |
| 1787957250 | 27.78° C | 37% | 1017.6 hPa | 0 mm | - | 136 W/m² | - |
| 1787956945 | 28.33° C | 36% | 1017.6 hPa | 0 mm | - | 171 W/m² | - |
| 1787956644 | 28.33° C | 36% | 1017.7 hPa | 0 mm | - | 152 W/m² | - |
| 1787956339 | 28.33° C | 37% | 1017.8 hPa | 0 mm | - | 187 W/m² | - |
| 1787956034 | 28.89° C | 35% | 1017.8 hPa | 0 mm | - | 186 W/m² | - |
| 1787955730 | 28.89° C | 35% | 1017.8 hPa | 0 mm | - | 219 W/m² | - |
| 1787955426 | 29.44° C | 34% | 1017.9 hPa | 0 mm | - | 158 W/m² | - |
| 1787955124 | 28.89° C | 35% | 1017.9 hPa | 0 mm | - | 423 W/m² | - |
| 1787954820 | 28.89° C | 34% | 1017.9 hPa | 0 mm | - | 224 W/m² | - |
| 1787954516 | 30° C | 33% | 1018.3 hPa | 0 mm | - | 336 W/m² | - |
| 1787954216 | 30° C | 32% | 1018.2 hPa | 0 mm | - | 587 W/m² | - |
| 1787953916 | 28.33° C | 34% | 1018.2 hPa | 0 mm | - | 672 W/m² | - |
| 1787953615 | 28.33° C | 36% | 1018.4 hPa | 0 mm | - | 240 W/m² | - |
| 1787953310 | 28.89° C | 35% | 1018.6 hPa | 0 mm | - | 206 W/m² | - |
* Rain latest hour (hover to see other rain measurements)
** Current wind speed in m/s (hover to see current wind gust speed)